sensor_id;sensor_type;location;lat;lon;timestamp;P1;durP1;ratioP1;P2;durP2;ratioP2
7471;SDS011;3777;48.722;8.110;2023-07-16T00:00:59;3.87;;;2.87;;
7471;SDS011;3777;48.722;8.110;2023-07-16T00:03:27;4.18;;;3.25;;
7471;SDS011;3777;48.722;8.110;2023-07-16T00:05:54;3.75;;;2.92;;
7471;SDS011;3777;48.722;8.110;2023-07-16T00:08:21;3.88;;;2.90;;
7471;SDS011;3777;48.722;8.110;2023-07-16T00:10:54;3.55;;;2.90;;
7471;SDS011;3777;48.722;8.110;2023-07-16T00:13:21;3.72;;;2.95;;
7471;SDS011;3777;48.722;8.110;2023-07-16T00:15:50;3.00;;;2.70;;
7471;SDS011;3777;48.722;8.110;2023-07-16T00:18:17;3.20;;;2.90;;
7471;SDS011;3777;48.722;8.110;2023-07-16T00:20:44;3.33;;;3.00;;
7471;SDS011;3777;48.722;8.110;2023-07-16T00:23:10;3.65;;;3.03;;
7471;SDS011;3777;48.722;8.110;2023-07-16T00:25:37;3.90;;;3.05;;
7471;SDS011;3777;48.722;8.110;2023-07-16T00:28:04;4.07;;;3.27;;
7471;SDS011;3777;48.722;8.110;2023-07-16T00:30:31;5.45;;;3.50;;
7471;SDS011;3777;48.722;8.110;2023-07-16T00:32:59;4.57;;;3.13;;
7471;SDS011;3777;48.722;8.110;2023-07-16T00:35:26;3.95;;;3.30;;
7471;SDS011;3777;48.722;8.110;2023-07-16T00:37:53;4.13;;;3.00;;
7471;SDS011;3777;48.722;8.110;2023-07-16T00:40:20;4.45;;;3.00;;
7471;SDS011;3777;48.722;8.110;2023-07-16T00:42:47;3.70;;;2.80;;
7471;SDS011;3777;48.722;8.110;2023-07-16T00:45:14;4.40;;;2.85;;
7471;SDS011;3777;48.722;8.110;2023-07-16T00:47:41;3.37;;;2.40;;
7471;SDS011;3777;48.722;8.110;2023-07-16T00:50:11;3.33;;;2.17;;
7471;SDS011;3777;48.722;8.110;2023-07-16T00:52:38;3.13;;;2.13;;
7471;SDS011;3777;48.722;8.110;2023-07-16T00:55:06;2.60;;;2.30;;
7471;SDS011;3777;48.722;8.110;2023-07-16T00:57:34;3.40;;;2.20;;
7471;SDS011;3777;48.722;8.110;2023-07-16T01:00:02;2.97;;;2.20;;
7471;SDS011;3777;48.722;8.110;2023-07-16T01:02:29;3.00;;;2.08;;
7471;SDS011;3777;48.722;8.110;2023-07-16T01:04:57;2.30;;;2.10;;
7471;SDS011;3777;48.722;8.110;2023-07-16T01:07:25;2.28;;;2.03;;
7471;SDS011;3777;48.722;8.110;2023-07-16T01:09:55;3.17;;;2.20;;
7471;SDS011;3777;48.722;8.110;2023-07-16T01:12:24;4.13;;;2.20;;
7471;SDS011;3777;48.722;8.110;2023-07-16T01:14:53;2.63;;;2.10;;
7471;SDS011;3777;48.722;8.110;2023-07-16T01:17:22;4.20;;;2.10;;
7471;SDS011;3777;48.722;8.110;2023-07-16T01:19:49;3.40;;;2.20;;
7471;SDS011;3777;48.722;8.110;2023-07-16T01:25:36;4.07;;;2.45;;
7471;SDS011;3777;48.722;8.110;2023-07-16T01:28:34;2.40;;;2.10;;
7471;SDS011;3777;48.722;8.110;2023-07-16T01:31:17;3.15;;;2.42;;
7471;SDS011;3777;48.722;8.110;2023-07-16T01:33:46;4.18;;;2.50;;
7471;SDS011;3777;48.722;8.110;2023-07-16T01:36:14;3.60;;;2.40;;
7471;SDS011;3777;48.722;8.110;2023-07-16T01:38:43;4.05;;;2.50;;
7471;SDS011;3777;48.722;8.110;2023-07-16T01:41:11;3.13;;;2.45;;
7471;SDS011;3777;48.722;8.110;2023-07-16T01:43:38;5.05;;;2.50;;
7471;SDS011;3777;48.722;8.110;2023-07-16T01:46:04;3.20;;;2.30;;
7471;SDS011;3777;48.722;8.110;2023-07-16T01:48:33;5.93;;;2.60;;
7471;SDS011;3777;48.722;8.110;2023-07-16T01:51:02;3.42;;;2.55;;
7471;SDS011;3777;48.722;8.110;2023-07-16T01:53:29;3.30;;;2.67;;
7471;SDS011;3777;48.722;8.110;2023-07-16T01:55:56;4.70;;;2.65;;
7471;SDS011;3777;48.722;8.110;2023-07-16T01:58:23;3.78;;;2.40;;
7471;SDS011;3777;48.722;8.110;2023-07-16T02:00:50;3.65;;;2.60;;
7471;SDS011;3777;48.722;8.110;2023-07-16T02:03:17;4.75;;;2.47;;
7471;SDS011;3777;48.722;8.110;2023-07-16T02:05:46;4.23;;;2.50;;
7471;SDS011;3777;48.722;8.110;2023-07-16T02:08:13;3.70;;;2.35;;
7471;SDS011;3777;48.722;8.110;2023-07-16T02:10:40;3.83;;;2.55;;
7471;SDS011;3777;48.722;8.110;2023-07-16T02:13:07;4.07;;;2.40;;
7471;SDS011;3777;48.722;8.110;2023-07-16T02:15:34;6.03;;;2.50;;
7471;SDS011;3777;48.722;8.110;2023-07-16T02:18:01;3.25;;;2.60;;
7471;SDS011;3777;48.722;8.110;2023-07-16T02:20:28;4.97;;;2.88;;
7471;SDS011;3777;48.722;8.110;2023-07-16T02:22:57;5.77;;;2.97;;
7471;SDS011;3777;48.722;8.110;2023-07-16T02:25:24;3.58;;;2.40;;
7471;SDS011;3777;48.722;8.110;2023-07-16T02:27:51;6.45;;;2.75;;
7471;SDS011;3777;48.722;8.110;2023-07-16T02:30:18;4.55;;;2.35;;
7471;SDS011;3777;48.722;8.110;2023-07-16T02:32:45;5.13;;;2.70;;
7471;SDS011;3777;48.722;8.110;2023-07-16T02:35:12;3.50;;;2.50;;
7471;SDS011;3777;48.722;8.110;2023-07-16T02:37:39;4.70;;;2.60;;
7471;SDS011;3777;48.722;8.110;2023-07-16T02:40:08;3.60;;;2.33;;
7471;SDS011;3777;48.722;8.110;2023-07-16T02:42:35;4.85;;;2.50;;
7471;SDS011;3777;48.722;8.110;2023-07-16T02:45:02;3.80;;;2.50;;
7471;SDS011;3777;48.722;8.110;2023-07-16T02:47:29;4.20;;;2.53;;
7471;SDS011;3777;48.722;8.110;2023-07-16T02:49:56;3.97;;;2.33;;
7471;SDS011;3777;48.722;8.110;2023-07-16T02:52:23;5.18;;;2.53;;
7471;SDS011;3777;48.722;8.110;2023-07-16T02:54:50;4.68;;;2.50;;
7471;SDS011;3777;48.722;8.110;2023-07-16T02:57:18;4.05;;;2.70;;
7471;SDS011;3777;48.722;8.110;2023-07-16T02:59:47;4.45;;;2.40;;
7471;SDS011;3777;48.722;8.110;2023-07-16T03:02:14;4.72;;;2.60;;
7471;SDS011;3777;48.722;8.110;2023-07-16T03:04:41;4.50;;;2.53;;
7471;SDS011;3777;48.722;8.110;2023-07-16T03:07:08;4.93;;;2.70;;
7471;SDS011;3777;48.722;8.110;2023-07-16T03:09:35;3.22;;;2.22;;
7471;SDS011;3777;48.722;8.110;2023-07-16T03:12:02;3.47;;;2.72;;
7471;SDS011;3777;48.722;8.110;2023-07-16T03:14:31;3.30;;;2.30;;
7471;SDS011;3777;48.722;8.110;2023-07-16T03:16:58;3.90;;;2.50;;
7471;SDS011;3777;48.722;8.110;2023-07-16T03:19:25;2.50;;;2.17;;
7471;SDS011;3777;48.722;8.110;2023-07-16T03:21:51;4.87;;;2.60;;
7471;SDS011;3777;48.722;8.110;2023-07-16T03:24:18;2.75;;;2.40;;
7471;SDS011;3777;48.722;8.110;2023-07-16T03:26:45;3.92;;;2.50;;
7471;SDS011;3777;48.722;8.110;2023-07-16T03:29:12;4.57;;;2.22;;
7471;SDS011;3777;48.722;8.110;2023-07-16T03:31:41;3.80;;;2.60;;
7471;SDS011;3777;48.722;8.110;2023-07-16T03:34:07;3.80;;;2.80;;
7471;SDS011;3777;48.722;8.110;2023-07-16T03:36:34;5.07;;;2.38;;
7471;SDS011;3777;48.722;8.110;2023-07-16T03:39:01;4.18;;;2.35;;
7471;SDS011;3777;48.722;8.110;2023-07-16T03:41:28;3.57;;;2.50;;
7471;SDS011;3777;48.722;8.110;2023-07-16T03:43:55;3.38;;;2.38;;
7471;SDS011;3777;48.722;8.110;2023-07-16T03:46:21;3.45;;;2.50;;
7471;SDS011;3777;48.722;8.110;2023-07-16T03:48:50;3.13;;;2.35;;
7471;SDS011;3777;48.722;8.110;2023-07-16T03:51:19;3.67;;;2.40;;
7471;SDS011;3777;48.722;8.110;2023-07-16T03:53:46;5.13;;;2.50;;
7471;SDS011;3777;48.722;8.110;2023-07-16T03:56:13;3.20;;;2.20;;
7471;SDS011;3777;48.722;8.110;2023-07-16T03:58:39;3.40;;;2.20;;
7471;SDS011;3777;48.722;8.110;2023-07-16T04:01:06;5.60;;;2.45;;
7471;SDS011;3777;48.722;8.110;2023-07-16T04:03:35;3.92;;;2.40;;
7471;SDS011;3777;48.722;8.110;2023-07-16T04:06:03;3.45;;;2.42;;
7471;SDS011;3777;48.722;8.110;2023-07-16T04:08:31;4.00;;;2.35;;
7471;SDS011;3777;48.722;8.110;2023-07-16T04:11:01;3.70;;;2.60;;
7471;SDS011;3777;48.722;8.110;2023-07-16T04:13:28;3.75;;;2.40;;
7471;SDS011;3777;48.722;8.110;2023-07-16T04:15:55;3.60;;;2.15;;
7471;SDS011;3777;48.722;8.110;2023-07-16T04:18:23;3.97;;;2.53;;
7471;SDS011;3777;48.722;8.110;2023-07-16T04:20:50;5.13;;;2.60;;
7471;SDS011;3777;48.722;8.110;2023-07-16T04:23:21;3.27;;;2.37;;
7471;SDS011;3777;48.722;8.110;2023-07-16T04:25:51;3.90;;;2.25;;
7471;SDS011;3777;48.722;8.110;2023-07-16T04:28:18;7.30;;;2.20;;
7471;SDS011;3777;48.722;8.110;2023-07-16T04:30:45;3.20;;;2.10;;
7471;SDS011;3777;48.722;8.110;2023-07-16T04:33:12;3.83;;;2.30;;
7471;SDS011;3777;48.722;8.110;2023-07-16T04:35:39;3.22;;;2.20;;
7471;SDS011;3777;48.722;8.110;2023-07-16T04:38:07;3.47;;;2.30;;
7471;SDS011;3777;48.722;8.110;2023-07-16T04:40:35;5.15;;;2.20;;
7471;SDS011;3777;48.722;8.110;2023-07-16T04:43:03;5.22;;;2.38;;
7471;SDS011;3777;48.722;8.110;2023-07-16T04:45:30;3.92;;;2.20;;
7471;SDS011;3777;48.722;8.110;2023-07-16T04:47:57;3.35;;;2.20;;
7471;SDS011;3777;48.722;8.110;2023-07-16T04:50:24;4.35;;;2.13;;
7471;SDS011;3777;48.722;8.110;2023-07-16T04:52:51;3.40;;;2.13;;
7471;SDS011;3777;48.722;8.110;2023-07-16T04:55:18;3.75;;;2.20;;
7471;SDS011;3777;48.722;8.110;2023-07-16T04:57:46;6.17;;;2.40;;
7471;SDS011;3777;48.722;8.110;2023-07-16T05:00:13;3.45;;;2.10;;
7471;SDS011;3777;48.722;8.110;2023-07-16T05:02:40;3.83;;;2.38;;
7471;SDS011;3777;48.722;8.110;2023-07-16T05:05:07;4.43;;;2.38;;
7471;SDS011;3777;48.722;8.110;2023-07-16T05:07:34;2.95;;;2.13;;
7471;SDS011;3777;48.722;8.110;2023-07-16T05:10:01;4.13;;;2.33;;
7471;SDS011;3777;48.722;8.110;2023-07-16T05:12:29;3.05;;;2.30;;
7471;SDS011;3777;48.722;8.110;2023-07-16T05:14:57;3.55;;;2.20;;
7471;SDS011;3777;48.722;8.110;2023-07-16T05:17:24;4.30;;;2.50;;
7471;SDS011;3777;48.722;8.110;2023-07-16T05:19:51;4.10;;;2.40;;
7471;SDS011;3777;48.722;8.110;2023-07-16T05:22:18;4.93;;;2.42;;
7471;SDS011;3777;48.722;8.110;2023-07-16T05:24:45;4.38;;;2.42;;
7471;SDS011;3777;48.722;8.110;2023-07-16T05:27:12;4.88;;;2.50;;
7471;SDS011;3777;48.722;8.110;2023-07-16T05:29:39;4.43;;;2.40;;
7471;SDS011;3777;48.722;8.110;2023-07-16T05:32:08;4.00;;;2.38;;
7471;SDS011;3777;48.722;8.110;2023-07-16T05:34:35;4.10;;;2.45;;
7471;SDS011;3777;48.722;8.110;2023-07-16T05:37:01;3.78;;;2.33;;
7471;SDS011;3777;48.722;8.110;2023-07-16T05:39:29;4.63;;;2.40;;
7471;SDS011;3777;48.722;8.110;2023-07-16T05:41:56;3.50;;;2.30;;
7471;SDS011;3777;48.722;8.110;2023-07-16T05:44:22;4.38;;;2.40;;
7471;SDS011;3777;48.722;8.110;2023-07-16T05:46:49;4.40;;;2.13;;
7471;SDS011;3777;48.722;8.110;2023-07-16T05:49:18;4.00;;;2.33;;
7471;SDS011;3777;48.722;8.110;2023-07-16T05:51:45;5.47;;;2.20;;
7471;SDS011;3777;48.722;8.110;2023-07-16T05:54:12;3.42;;;2.17;;
7471;SDS011;3777;48.722;8.110;2023-07-16T05:56:39;3.67;;;2.10;;
7471;SDS011;3777;48.722;8.110;2023-07-16T05:59:05;3.97;;;2.30;;
7471;SDS011;3777;48.722;8.110;2023-07-16T06:01:32;5.00;;;2.20;;
7471;SDS011;3777;48.722;8.110;2023-07-16T06:03:59;4.00;;;2.10;;
7471;SDS011;3777;48.722;8.110;2023-07-16T06:06:29;4.35;;;2.10;;
7471;SDS011;3777;48.722;8.110;2023-07-16T06:08:58;3.50;;;2.10;;
7471;SDS011;3777;48.722;8.110;2023-07-16T06:11:25;3.25;;;1.98;;
7471;SDS011;3777;48.722;8.110;2023-07-16T06:13:52;2.97;;;1.92;;
7471;SDS011;3777;48.722;8.110;2023-07-16T06:16:20;3.80;;;2.00;;
7471;SDS011;3777;48.722;8.110;2023-07-16T06:18:46;7.07;;;2.60;;
7471;SDS011;3777;48.722;8.110;2023-07-16T06:21:13;5.10;;;2.20;;
7471;SDS011;3777;48.722;8.110;2023-07-16T06:23:42;4.28;;;2.03;;
7471;SDS011;3777;48.722;8.110;2023-07-16T06:26:09;5.40;;;2.20;;
7471;SDS011;3777;48.722;8.110;2023-07-16T06:28:36;4.07;;;2.03;;
7471;SDS011;3777;48.722;8.110;2023-07-16T06:31:03;3.83;;;2.20;;
7471;SDS011;3777;48.722;8.110;2023-07-16T06:33:30;2.80;;;1.98;;
7471;SDS011;3777;48.722;8.110;2023-07-16T06:35:57;4.68;;;1.98;;
7471;SDS011;3777;48.722;8.110;2023-07-16T06:38:24;4.20;;;2.03;;
7471;SDS011;3777;48.722;8.110;2023-07-16T06:40:53;3.92;;;2.10;;
7471;SDS011;3777;48.722;8.110;2023-07-16T06:43:21;4.57;;;2.10;;
7471;SDS011;3777;48.722;8.110;2023-07-16T06:45:48;3.03;;;1.90;;
7471;SDS011;3777;48.722;8.110;2023-07-16T06:48:16;4.20;;;1.98;;
7471;SDS011;3777;48.722;8.110;2023-07-16T06:50:43;2.92;;;1.88;;
7471;SDS011;3777;48.722;8.110;2023-07-16T06:53:10;3.47;;;1.90;;
7471;SDS011;3777;48.722;8.110;2023-07-16T06:55:37;3.70;;;1.93;;
7471;SDS011;3777;48.722;8.110;2023-07-16T06:58:05;4.40;;;2.00;;
7471;SDS011;3777;48.722;8.110;2023-07-16T07:00:36;3.97;;;2.17;;
7471;SDS011;3777;48.722;8.110;2023-07-16T07:03:03;3.00;;;1.98;;
7471;SDS011;3777;48.722;8.110;2023-07-16T07:05:30;3.55;;;2.00;;
7471;SDS011;3777;48.722;8.110;2023-07-16T07:07:57;4.37;;;2.03;;
7471;SDS011;3777;48.722;8.110;2023-07-16T07:10:24;4.85;;;2.30;;
7471;SDS011;3777;48.722;8.110;2023-07-16T07:12:50;5.20;;;2.30;;
7471;SDS011;3777;48.722;8.110;2023-07-16T07:15:19;4.45;;;2.20;;
7471;SDS011;3777;48.722;8.110;2023-07-16T07:17:46;3.33;;;2.13;;
7471;SDS011;3777;48.722;8.110;2023-07-16T07:20:13;5.65;;;2.30;;
7471;SDS011;3777;48.722;8.110;2023-07-16T07:22:40;3.70;;;2.10;;
7471;SDS011;3777;48.722;8.110;2023-07-16T07:25:07;4.38;;;2.17;;
7471;SDS011;3777;48.722;8.110;2023-07-16T07:27:34;4.05;;;1.95;;
7471;SDS011;3777;48.722;8.110;2023-07-16T07:30:01;3.92;;;2.25;;
7471;SDS011;3777;48.722;8.110;2023-07-16T07:32:30;3.80;;;2.10;;
7471;SDS011;3777;48.722;8.110;2023-07-16T07:34:57;3.92;;;2.20;;
7471;SDS011;3777;48.722;8.110;2023-07-16T07:37:24;3.40;;;2.10;;
7471;SDS011;3777;48.722;8.110;2023-07-16T07:39:51;4.93;;;2.17;;
7471;SDS011;3777;48.722;8.110;2023-07-16T07:42:19;3.97;;;2.20;;
7471;SDS011;3777;48.722;8.110;2023-07-16T07:44:45;4.82;;;2.17;;
7471;SDS011;3777;48.722;8.110;2023-07-16T07:47:12;4.73;;;2.23;;
7471;SDS011;3777;48.722;8.110;2023-07-16T07:49:41;3.13;;;2.03;;
7471;SDS011;3777;48.722;8.110;2023-07-16T07:52:08;4.40;;;2.20;;
7471;SDS011;3777;48.722;8.110;2023-07-16T07:54:35;4.32;;;2.30;;
7471;SDS011;3777;48.722;8.110;2023-07-16T07:57:02;3.43;;;2.07;;
7471;SDS011;3777;48.722;8.110;2023-07-16T07:59:30;2.63;;;1.95;;
7471;SDS011;3777;48.722;8.110;2023-07-16T08:01:57;3.50;;;2.10;;
7471;SDS011;3777;48.722;8.110;2023-07-16T08:04:26;4.50;;;2.00;;
7471;SDS011;3777;48.722;8.110;2023-07-16T08:06:55;3.67;;;2.08;;
7471;SDS011;3777;48.722;8.110;2023-07-16T08:09:22;3.67;;;2.00;;
7471;SDS011;3777;48.722;8.110;2023-07-16T08:11:48;3.20;;;1.90;;
7471;SDS011;3777;48.722;8.110;2023-07-16T08:14:15;3.90;;;2.00;;
7471;SDS011;3777;48.722;8.110;2023-07-16T08:16:42;2.67;;;1.80;;
7471;SDS011;3777;48.722;8.110;2023-07-16T08:19:09;3.25;;;1.98;;
7471;SDS011;3777;48.722;8.110;2023-07-16T08:21:36;3.80;;;2.08;;
7471;SDS011;3777;48.722;8.110;2023-07-16T08:24:06;4.40;;;2.20;;
7471;SDS011;3777;48.722;8.110;2023-07-16T08:26:32;5.97;;;2.28;;
7471;SDS011;3777;48.722;8.110;2023-07-16T08:28:59;4.43;;;2.30;;
7471;SDS011;3777;48.722;8.110;2023-07-16T08:31:27;5.55;;;2.22;;
7471;SDS011;3777;48.722;8.110;2023-07-16T08:33:54;4.10;;;2.10;;
7471;SDS011;3777;48.722;8.110;2023-07-16T08:36:21;4.57;;;2.33;;
7471;SDS011;3777;48.722;8.110;2023-07-16T08:38:48;5.22;;;2.35;;
7471;SDS011;3777;48.722;8.110;2023-07-16T08:41:17;5.30;;;2.20;;
7471;SDS011;3777;48.722;8.110;2023-07-16T08:43:45;4.68;;;2.35;;
7471;SDS011;3777;48.722;8.110;2023-07-16T08:46:13;4.50;;;2.20;;
7471;SDS011;3777;48.722;8.110;2023-07-16T08:48:41;4.43;;;2.20;;
7471;SDS011;3777;48.722;8.110;2023-07-16T08:51:09;4.95;;;2.20;;
7471;SDS011;3777;48.722;8.110;2023-07-16T08:53:37;4.60;;;2.00;;
7471;SDS011;3777;48.722;8.110;2023-07-16T08:56:04;4.07;;;2.10;;
7471;SDS011;3777;48.722;8.110;2023-07-16T08:58:32;4.18;;;1.95;;
7471;SDS011;3777;48.722;8.110;2023-07-16T09:00:59;5.43;;;2.10;;
7471;SDS011;3777;48.722;8.110;2023-07-16T09:03:27;5.75;;;2.25;;
7471;SDS011;3777;48.722;8.110;2023-07-16T09:05:54;3.53;;;2.03;;
7471;SDS011;3777;48.722;8.110;2023-07-16T09:08:21;4.57;;;2.10;;
7471;SDS011;3777;48.722;8.110;2023-07-16T09:10:53;4.73;;;2.10;;
7471;SDS011;3777;48.722;8.110;2023-07-16T09:13:21;5.68;;;2.40;;
7471;SDS011;3777;48.722;8.110;2023-07-16T09:15:53;5.65;;;2.22;;
7471;SDS011;3777;48.722;8.110;2023-07-16T09:18:21;5.95;;;2.30;;
7471;SDS011;3777;48.722;8.110;2023-07-16T09:20:48;4.20;;;2.00;;
7471;SDS011;3777;48.722;8.110;2023-07-16T09:23:19;4.05;;;2.10;;
7471;SDS011;3777;48.722;8.110;2023-07-16T09:25:49;3.85;;;2.10;;
7471;SDS011;3777;48.722;8.110;2023-07-16T09:28:18;4.63;;;2.30;;
7471;SDS011;3777;48.722;8.110;2023-07-16T09:30:45;4.67;;;2.10;;
7471;SDS011;3777;48.722;8.110;2023-07-16T09:33:14;3.63;;;2.10;;
7471;SDS011;3777;48.722;8.110;2023-07-16T09:35:42;4.70;;;2.00;;
7471;SDS011;3777;48.722;8.110;2023-07-16T09:38:10;4.78;;;2.20;;
7471;SDS011;3777;48.722;8.110;2023-07-16T09:40:37;4.68;;;2.20;;
7471;SDS011;3777;48.722;8.110;2023-07-16T09:43:07;4.72;;;2.10;;
7471;SDS011;3777;48.722;8.110;2023-07-16T09:45:35;4.05;;;2.13;;
7471;SDS011;3777;48.722;8.110;2023-07-16T09:48:02;4.30;;;2.30;;
7471;SDS011;3777;48.722;8.110;2023-07-16T09:50:31;4.60;;;2.23;;
7471;SDS011;3777;48.722;8.110;2023-07-16T09:53:00;5.25;;;2.28;;
7471;SDS011;3777;48.722;8.110;2023-07-16T09:55:28;4.38;;;2.20;;
7471;SDS011;3777;48.722;8.110;2023-07-16T09:57:59;3.97;;;2.00;;
7471;SDS011;3777;48.722;8.110;2023-07-16T10:00:28;4.30;;;2.08;;
7471;SDS011;3777;48.722;8.110;2023-07-16T10:02:56;4.65;;;2.22;;
7471;SDS011;3777;48.722;8.110;2023-07-16T10:05:24;4.60;;;2.03;;
7471;SDS011;3777;48.722;8.110;2023-07-16T10:07:54;4.35;;;2.30;;
7471;SDS011;3777;48.722;8.110;2023-07-16T10:10:26;5.75;;;2.38;;
7471;SDS011;3777;48.722;8.110;2023-07-16T10:13:04;5.18;;;2.45;;
7471;SDS011;3777;48.722;8.110;2023-07-16T10:15:31;4.10;;;2.10;;
7471;SDS011;3777;48.722;8.110;2023-07-16T10:17:58;5.40;;;2.25;;
7471;SDS011;3777;48.722;8.110;2023-07-16T10:20:30;4.37;;;2.20;;
7471;SDS011;3777;48.722;8.110;2023-07-16T10:23:09;6.40;;;2.38;;
7471;SDS011;3777;48.722;8.110;2023-07-16T10:25:37;4.05;;;2.30;;
7471;SDS011;3777;48.722;8.110;2023-07-16T10:28:04;5.05;;;2.30;;
7471;SDS011;3777;48.722;8.110;2023-07-16T10:30:32;4.50;;;2.15;;
7471;SDS011;3777;48.722;8.110;2023-07-16T10:33:02;5.30;;;2.40;;
7471;SDS011;3777;48.722;8.110;2023-07-16T10:35:34;4.22;;;2.08;;
7471;SDS011;3777;48.722;8.110;2023-07-16T10:38:03;3.97;;;2.30;;
7471;SDS011;3777;48.722;8.110;2023-07-16T10:40:30;4.75;;;2.17;;
7471;SDS011;3777;48.722;8.110;2023-07-16T10:42:57;4.28;;;2.15;;
7471;SDS011;3777;48.722;8.110;2023-07-16T10:45:24;4.10;;;1.98;;
7471;SDS011;3777;48.722;8.110;2023-07-16T10:47:52;3.03;;;1.90;;
7471;SDS011;3777;48.722;8.110;2023-07-16T10:50:19;4.17;;;2.37;;
7471;SDS011;3777;48.722;8.110;2023-07-16T10:52:50;4.73;;;2.30;;
7471;SDS011;3777;48.722;8.110;2023-07-16T10:55:20;3.45;;;2.22;;
7471;SDS011;3777;48.722;8.110;2023-07-16T10:57:47;4.80;;;2.20;;
7471;SDS011;3777;48.722;8.110;2023-07-16T11:00:15;4.13;;;2.00;;
7471;SDS011;3777;48.722;8.110;2023-07-16T11:02:43;5.15;;;2.10;;
7471;SDS011;3777;48.722;8.110;2023-07-16T11:05:11;3.13;;;1.98;;
7471;SDS011;3777;48.722;8.110;2023-07-16T11:07:42;4.03;;;2.00;;
7471;SDS011;3777;48.722;8.110;2023-07-16T11:10:09;4.63;;;2.10;;
7471;SDS011;3777;48.722;8.110;2023-07-16T11:12:38;3.00;;;2.00;;
7471;SDS011;3777;48.722;8.110;2023-07-16T11:15:05;5.53;;;2.40;;
7471;SDS011;3777;48.722;8.110;2023-07-16T11:17:33;4.77;;;2.33;;
7471;SDS011;3777;48.722;8.110;2023-07-16T11:20:00;4.20;;;2.13;;
7471;SDS011;3777;48.722;8.110;2023-07-16T11:22:29;4.03;;;2.23;;
7471;SDS011;3777;48.722;8.110;2023-07-16T11:24:57;4.68;;;2.40;;
7471;SDS011;3777;48.722;8.110;2023-07-16T11:27:25;4.93;;;2.30;;
7471;SDS011;3777;48.722;8.110;2023-07-16T11:29:55;4.85;;;2.25;;
7471;SDS011;3777;48.722;8.110;2023-07-16T11:32:26;5.10;;;2.20;;
7471;SDS011;3777;48.722;8.110;2023-07-16T11:34:55;4.65;;;2.10;;
7471;SDS011;3777;48.722;8.110;2023-07-16T11:37:24;4.35;;;2.15;;
7471;SDS011;3777;48.722;8.110;2023-07-16T11:39:54;3.80;;;2.10;;
7471;SDS011;3777;48.722;8.110;2023-07-16T11:42:27;4.82;;;2.38;;
7471;SDS011;3777;48.722;8.110;2023-07-16T11:44:57;3.90;;;2.10;;
7471;SDS011;3777;48.722;8.110;2023-07-16T11:47:24;5.07;;;2.20;;
7471;SDS011;3777;48.722;8.110;2023-07-16T11:49:51;4.33;;;2.30;;
7471;SDS011;3777;48.722;8.110;2023-07-16T11:52:19;3.85;;;2.50;;
7471;SDS011;3777;48.722;8.110;2023-07-16T11:54:47;4.03;;;2.30;;
7471;SDS011;3777;48.722;8.110;2023-07-16T11:57:14;5.13;;;2.40;;
7471;SDS011;3777;48.722;8.110;2023-07-16T11:59:41;4.53;;;2.30;;
7471;SDS011;3777;48.722;8.110;2023-07-16T12:02:10;3.97;;;2.30;;
7471;SDS011;3777;48.722;8.110;2023-07-16T12:04:37;4.57;;;2.50;;
7471;SDS011;3777;48.722;8.110;2023-07-16T12:07:04;3.80;;;2.00;;
7471;SDS011;3777;48.722;8.110;2023-07-16T12:09:31;4.50;;;2.15;;
7471;SDS011;3777;48.722;8.110;2023-07-16T12:11:59;4.03;;;2.33;;
7471;SDS011;3777;48.722;8.110;2023-07-16T12:14:26;4.05;;;2.10;;
7471;SDS011;3777;48.722;8.110;2023-07-16T12:16:53;4.07;;;2.30;;
7471;SDS011;3777;48.722;8.110;2023-07-16T12:19:22;4.38;;;2.20;;
7471;SDS011;3777;48.722;8.110;2023-07-16T12:21:51;4.13;;;2.25;;
7471;SDS011;3777;48.722;8.110;2023-07-16T12:24:18;3.60;;;2.20;;
7471;SDS011;3777;48.722;8.110;2023-07-16T12:26:45;4.47;;;2.40;;
7471;SDS011;3777;48.722;8.110;2023-07-16T12:29:12;3.97;;;2.38;;
7471;SDS011;3777;48.722;8.110;2023-07-16T12:31:39;3.65;;;2.25;;
7471;SDS011;3777;48.722;8.110;2023-07-16T12:34:06;4.38;;;2.33;;
7471;SDS011;3777;48.722;8.110;2023-07-16T12:36:34;3.70;;;2.20;;
7471;SDS011;3777;48.722;8.110;2023-07-16T12:39:01;5.15;;;2.45;;
7471;SDS011;3777;48.722;8.110;2023-07-16T12:41:28;4.25;;;2.30;;
7471;SDS011;3777;48.722;8.110;2023-07-16T12:43:55;4.17;;;2.10;;
7471;SDS011;3777;48.722;8.110;2023-07-16T12:46:22;4.32;;;2.38;;
7471;SDS011;3777;48.722;8.110;2023-07-16T12:48:49;5.30;;;2.40;;
7471;SDS011;3777;48.722;8.110;2023-07-16T12:51:16;3.55;;;2.28;;
7471;SDS011;3777;48.722;8.110;2023-07-16T12:53:44;4.60;;;2.50;;
7471;SDS011;3777;48.722;8.110;2023-07-16T12:56:12;4.38;;;2.30;;
7471;SDS011;3777;48.722;8.110;2023-07-16T12:58:39;4.97;;;2.30;;
7471;SDS011;3777;48.722;8.110;2023-07-16T13:01:06;4.13;;;2.15;;
7471;SDS011;3777;48.722;8.110;2023-07-16T13:03:33;5.25;;;2.33;;
7471;SDS011;3777;48.722;8.110;2023-07-16T13:06:00;3.80;;;2.30;;
7471;SDS011;3777;48.722;8.110;2023-07-16T13:08:28;4.20;;;2.30;;
7471;SDS011;3777;48.722;8.110;2023-07-16T13:10:57;3.35;;;2.22;;
7471;SDS011;3777;48.722;8.110;2023-07-16T13:13:25;4.20;;;2.28;;
7471;SDS011;3777;48.722;8.110;2023-07-16T13:15:52;4.67;;;2.40;;
7471;SDS011;3777;48.722;8.110;2023-07-16T13:18:20;3.45;;;2.20;;
7471;SDS011;3777;48.722;8.110;2023-07-16T13:20:47;4.60;;;2.38;;
7471;SDS011;3777;48.722;8.110;2023-07-16T13:23:14;5.55;;;2.67;;
7471;SDS011;3777;48.722;8.110;2023-07-16T13:25:41;3.85;;;2.38;;
7471;SDS011;3777;48.722;8.110;2023-07-16T13:28:09;3.67;;;2.40;;
7471;SDS011;3777;48.722;8.110;2023-07-16T13:30:36;4.23;;;2.30;;
7471;SDS011;3777;48.722;8.110;2023-07-16T13:33:03;5.22;;;2.60;;
7471;SDS011;3777;48.722;8.110;2023-07-16T13:35:30;5.32;;;2.50;;
7471;SDS011;3777;48.722;8.110;2023-07-16T13:37:57;5.22;;;2.60;;
7471;SDS011;3777;48.722;8.110;2023-07-16T13:40:24;4.82;;;2.47;;
7471;SDS011;3777;48.722;8.110;2023-07-16T13:42:51;4.38;;;2.50;;
7471;SDS011;3777;48.722;8.110;2023-07-16T13:45:20;5.15;;;2.63;;
7471;SDS011;3777;48.722;8.110;2023-07-16T13:47:47;3.90;;;2.70;;
7471;SDS011;3777;48.722;8.110;2023-07-16T13:50:16;4.55;;;2.60;;
7471;SDS011;3777;48.722;8.110;2023-07-16T13:52:43;4.75;;;2.60;;
7471;SDS011;3777;48.722;8.110;2023-07-16T13:55:10;4.70;;;2.55;;
7471;SDS011;3777;48.722;8.110;2023-07-16T13:57:37;4.72;;;2.45;;
7471;SDS011;3777;48.722;8.110;2023-07-16T14:00:05;4.90;;;2.80;;
7471;SDS011;3777;48.722;8.110;2023-07-16T14:02:36;4.10;;;2.45;;
7471;SDS011;3777;48.722;8.110;2023-07-16T14:05:03;4.75;;;2.42;;
7471;SDS011;3777;48.722;8.110;2023-07-16T14:07:30;3.35;;;2.50;;
7471;SDS011;3777;48.722;8.110;2023-07-16T14:09:57;5.13;;;2.75;;
7471;SDS011;3777;48.722;8.110;2023-07-16T14:12:26;3.92;;;2.28;;
7471;SDS011;3777;48.722;8.110;2023-07-16T14:14:53;3.70;;;2.40;;
7471;SDS011;3777;48.722;8.110;2023-07-16T14:17:20;5.32;;;2.70;;
7471;SDS011;3777;48.722;8.110;2023-07-16T14:19:48;3.90;;;2.78;;
7471;SDS011;3777;48.722;8.110;2023-07-16T14:22:16;4.30;;;2.45;;
7471;SDS011;3777;48.722;8.110;2023-07-16T14:24:43;3.92;;;2.58;;
7471;SDS011;3777;48.722;8.110;2023-07-16T14:27:10;5.70;;;2.73;;
7471;SDS011;3777;48.722;8.110;2023-07-16T14:29:38;3.88;;;2.53;;
7471;SDS011;3777;48.722;8.110;2023-07-16T14:32:05;5.10;;;2.78;;
7471;SDS011;3777;48.722;8.110;2023-07-16T14:34:32;4.72;;;2.95;;
7471;SDS011;3777;48.722;8.110;2023-07-16T14:37:00;4.93;;;2.72;;
7471;SDS011;3777;48.722;8.110;2023-07-16T14:39:27;4.32;;;2.50;;
7471;SDS011;3777;48.722;8.110;2023-07-16T14:41:55;5.50;;;2.60;;
7471;SDS011;3777;48.722;8.110;2023-07-16T14:44:22;5.22;;;2.70;;
7471;SDS011;3777;48.722;8.110;2023-07-16T14:46:49;5.65;;;2.60;;
7471;SDS011;3777;48.722;8.110;2023-07-16T14:49:16;4.82;;;2.70;;
7471;SDS011;3777;48.722;8.110;2023-07-16T14:51:43;4.27;;;2.70;;
7471;SDS011;3777;48.722;8.110;2023-07-16T14:54:11;4.40;;;2.75;;
7471;SDS011;3777;48.722;8.110;2023-07-16T14:56:38;4.35;;;2.58;;
7471;SDS011;3777;48.722;8.110;2023-07-16T14:59:05;4.30;;;2.63;;
7471;SDS011;3777;48.722;8.110;2023-07-16T15:01:32;3.92;;;2.50;;
7471;SDS011;3777;48.722;8.110;2023-07-16T15:03:59;5.00;;;2.80;;
7471;SDS011;3777;48.722;8.110;2023-07-16T15:06:26;4.15;;;2.50;;
7471;SDS011;3777;48.722;8.110;2023-07-16T15:08:53;4.07;;;2.45;;
7471;SDS011;3777;48.722;8.110;2023-07-16T15:11:21;4.80;;;2.67;;
7471;SDS011;3777;48.722;8.110;2023-07-16T15:13:48;4.47;;;2.53;;
7471;SDS011;3777;48.722;8.110;2023-07-16T15:16:15;3.92;;;2.60;;
7471;SDS011;3777;48.722;8.110;2023-07-16T15:18:42;3.95;;;2.70;;
7471;SDS011;3777;48.722;8.110;2023-07-16T15:21:10;4.38;;;2.53;;